Time;durP1;ratioP1;P1;durP2;ratioP2;P2;SDS_P1;SDS_P2;PMS_P1;PMS_P2;Temp;Humidity;BMP_temperature;BMP_pressure;BME280_temperature;BME280_humidity;BME280_pressure;Samples;Min_cycle;Max_cycle;Signal;HPM_P1;HPM_P2
2022/08/09 00:02:27;;;;;;;5.93;1.73;;;;;;;19.28;100.00;102707.72;5102205;27;20051;-60
2022/08/09 00:04:54;;;;;;;6.72;1.70;;;;;;;19.23;100.00;102702.88;5109249;27;20054;-58
2022/08/09 00:07:42;;;;;;;5.45;2.20;;;;;;;19.18;100.00;102713.16;5118383;27;20058;-60
2022/08/09 00:10:10;;;;;;;5.60;1.85;;;;;;;19.14;100.00;102714.47;5095184;27;20057;-60
2022/08/09 00:12:46;;;;;;;4.68;2.10;;;;;;;19.11;100.00;102710.28;5105652;27;20047;-60
2022/08/09 00:15:18;;;;;;;4.97;2.00;;;;;;;19.06;100.00;102707.25;5100385;27;20051;-59
2022/08/09 00:17:44;;;;;;;7.85;1.83;;;;;;;19.03;100.00;102707.56;5103815;27;20069;-59
2022/08/09 00:20:31;;;;;;;4.57;1.40;;;;;;;19.07;100.00;102708.94;5110030;27;20047;-60
2022/08/09 00:22:59;;;;;;;;;;;;;;;19.06;100.00;102704.59;5102415;27;20245;-60
2022/08/09 00:25:45;;;;;;;3.15;1.83;;;;;;;19.01;100.00;102700.75;5111553;27;20276;-60
2022/08/09 00:28:18;;;;;;;8.48;2.00;;;;;;;19.01;100.00;102703.41;5107171;27;20126;-60
2022/08/09 00:30:48;;;;;;;5.95;2.28;;;;;;;18.97;100.00;102697.56;5105829;27;20061;-60
2022/08/09 00:33:15;;;;;;;5.20;2.05;;;;;;;18.93;100.00;102705.03;5103177;27;20071;-58
2022/08/09 00:35:42;;;;;;;5.38;2.20;;;;;;;18.93;100.00;102706.84;5105552;27;20052;-60
2022/08/09 00:38:11;;;;;;;4.30;2.10;;;;;;;18.93;100.00;102706.84;5105325;27;20055;-58
2022/08/09 00:40:42;;;;;;;5.57;2.08;;;;;;;18.90;100.00;102710.66;5107207;27;20047;-59
2022/08/09 00:43:19;;;;;;;2.80;2.00;;;;;;;18.80;100.00;102711.72;5115204;27;20043;-60
2022/08/09 00:46:08;;;;;;;4.18;2.00;;;;;;;18.80;100.00;102706.41;5100036;27;20065;-60
2022/08/09 00:48:36;;;;;;;4.90;2.38;;;;;;;18.76;100.00;102711.19;5118187;27;20130;-60
2022/08/09 00:51:05;;;;;;;5.13;2.28;;;;;;;18.76;100.00;102708.53;5097561;27;20465;-60
2022/08/09 00:53:38;;;;;;;5.82;2.17;;;;;;;18.76;100.00;102712.00;5103191;27;20056;-60
2022/08/09 00:56:06;;;;;;;4.10;2.20;;;;;;;18.70;100.00;102715.28;5095883;28;20059;-59
2022/08/09 00:58:35;;;;;;;3.38;2.00;;;;;;;18.68;100.00;102711.09;5100822;28;20043;-59
2022/08/09 01:01:13;;;;;;;4.03;2.13;;;;;;;18.64;100.00;102715.06;5101490;28;20468;-59
2022/08/09 01:03:56;;;;;;;4.50;2.20;;;;;;;18.64;100.00;102717.72;5100400;27;20054;-60
2022/08/09 01:06:32;;;;;;;4.95;2.40;;;;;;;18.60;100.00;102719.00;5104505;27;20055;-60
2022/08/09 01:09:29;;;;;;;4.63;2.10;;;;;;;18.61;100.00;102720.69;5092190;27;20051;-60
2022/08/09 01:12:16;;;;;;;2.72;2.00;;;;;;;18.57;100.00;102715.69;5112155;27;20047;-60
2022/08/09 01:14:59;;;;;;;4.85;2.30;;;;;;;18.54;100.00;102723.13;5105360;27;20054;-60
2022/08/09 01:17:57;;;;;;;5.28;2.30;;;;;;;18.52;100.00;102719.78;5088908;28;20138;-58
2022/08/09 01:20:43;;;;;;;6.97;2.50;;;;;;;18.47;100.00;102722.91;5099668;27;20053;-60
2022/08/09 01:23:30;;;;;;;;;;;;;;;18.44;100.00;102730.34;5112177;27;20354;-60
2022/08/09 01:26:50;;;;;;;4.55;2.58;;;;;;;18.46;100.00;102731.03;5101613;27;19930;-60
2022/08/09 01:29:28;;;;;;;4.78;2.60;;;;;;;18.42;100.00;102719.03;5105415;27;20039;-60
2022/08/09 01:32:17;;;;;;;7.10;2.80;;;;;;;18.37;100.00;102717.66;5100589;27;20166;-60
2022/08/09 01:35:03;;;;;;;4.68;2.70;;;;;;;18.36;100.00;102715.97;5096720;28;20082;-60
2022/08/09 01:37:44;;;;;;;4.45;2.90;;;;;;;18.35;100.00;102724.13;5092252;27;20054;-60
2022/08/09 01:40:32;;;;;;;6.63;2.88;;;;;;;18.33;100.00;102723.44;5100982;27;20503;-60
2022/08/09 01:43:00;;;;;;;8.32;2.97;;;;;;;18.33;100.00;102726.94;5104968;27;20534;-60
2022/08/09 01:45:27;;;;;;;7.85;3.00;;;;;;;18.30;100.00;102721.91;5102202;27;20050;-60
2022/08/09 01:47:57;;;;;;;5.28;2.92;;;;;;;18.30;100.00;102721.06;5094163;28;20048;-60
2022/08/09 01:50:26;;;;;;;8.23;3.50;;;;;;;18.27;100.00;102714.25;5106960;27;20070;-62
2022/08/09 01:53:03;;;;;;;6.28;2.80;;;;;;;18.27;100.00;102724.03;5113407;27;20057;-58
2022/08/09 01:55:47;;;;;;;5.07;3.28;;;;;;;18.23;100.00;102726.16;5103953;27;20047;-60
2022/08/09 01:58:14;;;;;;;4.90;3.50;;;;;;;18.22;100.00;102719.16;5114468;27;20054;-59
2022/08/09 02:00:44;;;;;;;3.88;2.90;;;;;;;18.18;100.00;102726.59;5087339;27;20043;-60
2022/08/09 02:03:14;;;;;;;7.38;4.00;;;;;;;18.17;100.00;102724.94;5108717;27;20184;-60
2022/08/09 02:05:43;;;;;;;7.88;3.65;;;;;;;18.08;100.00;102720.53;5110509;27;20047;-60
2022/08/09 02:08:31;;;;;;;6.72;3.42;;;;;;;18.03;100.00;102720.13;5101224;27;20328;-59
2022/08/09 02:11:18;;;;;;;7.40;3.17;;;;;;;18.03;100.00;102730.75;5114768;27;20054;-60
2022/08/09 02:13:46;;;;;;;5.72;3.38;;;;;;;17.98;100.00;102725.06;5104302;27;20054;-60
2022/08/09 02:16:35;;;;;;;7.50;3.40;;;;;;;17.97;100.00;102723.38;5105465;27;20538;-60
2022/08/09 02:19:22;;;;;;;6.03;3.30;;;;;;;17.92;100.00;102723.84;5102344;27;20446;-59
2022/08/09 02:21:53;;;;;;;8.98;3.97;;;;;;;17.93;100.00;102719.34;5104569;27;20055;-60
2022/08/09 02:24:25;;;;;;;7.28;3.40;;;;;;;17.94;100.00;102721.88;5104987;27;20134;-60
2022/08/09 02:26:56;;;;;;;5.90;3.67;;;;;;;17.92;100.00;102723.84;5099971;28;20580;-60
2022/08/09 02:29:28;;;;;;;6.47;3.80;;;;;;;17.86;100.00;102721.78;5099563;27;20078;-60
2022/08/09 02:32:00;;;;;;;6.40;3.47;;;;;;;17.85;100.00;102717.44;5095421;28;20074;-60
2022/08/09 02:34:31;;;;;;;7.43;3.67;;;;;;;17.79;100.00;102724.16;5099946;27;20043;-60
2022/08/09 02:37:20;;;;;;;5.65;4.10;;;;;;;17.77;100.00;102714.66;5104761;27;20538;-60
2022/08/09 02:39:55;;;;;;;5.72;4.28;;;;;;;17.71;100.00;102712.59;5119973;27;20050;-59
2022/08/09 02:42:32;;;;;;;5.43;3.47;;;;;;;17.70;100.00;102714.44;5089961;27;20488;-60
2022/08/09 02:45:06;;;;;;;7.60;4.05;;;;;;;17.70;100.00;102713.56;5104470;27;20051;-60
2022/08/09 02:47:35;;;;;;;8.32;4.18;;;;;;;17.61;100.00;102712.66;5097584;28;20146;-60
2022/08/09 02:50:41;;;;;;;;;;;;;;;17.61;100.00;102714.47;5103658;28;20054;-59
2022/08/09 02:53:15;;;;;;;6.75;3.60;;;;;;;17.61;100.00;102715.31;5098347;28;19994;-60
2022/08/09 02:55:53;;;;;;;7.82;4.45;;;;;;;17.59;100.00;102714.63;5107387;27;20047;-60
2022/08/09 02:58:26;;;;;;;6.60;4.03;;;;;;;17.56;100.00;102710.44;5107032;28;20043;-61
2022/08/09 03:01:06;;;;;;;6.13;4.07;;;;;;;17.56;100.00;102704.28;5118378;28;20503;-60
2022/08/09 03:03:38;;;;;;;10.50;4.40;;;;;;;17.55;100.00;102700.81;5112392;27;20058;-60
2022/08/09 03:06:27;;;;;;;6.80;3.85;;;;;;;17.49;100.00;102698.75;5112636;27;20128;-59
2022/08/09 03:08:56;;;;;;;6.85;3.60;;;;;;;17.50;100.00;102699.56;5120671;27;20091;-60
2022/08/09 03:11:25;;;;;;;6.93;3.97;;;;;;;17.48;100.00;102697.06;5109968;27;20851;-59
2022/08/09 03:14:11;;;;;;;;;;;;;;;17.47;100.00;102702.53;5112989;27;20078;-60
2022/08/09 03:16:38;;;;;;;6.50;4.20;;;;;;;17.44;100.00;102705.47;5105267;27;20313;-60
2022/08/09 03:19:11;;;;;;;6.72;3.67;;;;;;;17.44;100.00;102702.81;5104407;27;20043;-60
2022/08/09 03:21:59;;;;;;;7.05;4.18;;;;;;;17.42;100.00;102702.94;5102418;27;20457;-59
2022/08/09 03:24:29;;;;;;;8.07;4.13;;;;;;;17.42;100.00;102710.09;5109486;27;20051;-60
2022/08/09 03:27:15;;;;;;;10.43;4.30;;;;;;;17.42;100.00;102712.72;5114874;27;20043;-59
2022/08/09 03:29:47;;;;;;;7.53;4.90;;;;;;;17.38;100.00;102710.34;5099066;27;20048;-60
2022/08/09 03:32:29;;;;;;;7.55;4.57;;;;;;;17.37;100.00;102705.22;5092391;27;20054;-60
2022/08/09 03:34:58;;;;;;;8.57;4.90;;;;;;;17.36;100.00;102708.84;5107204;27;20051;-60
2022/08/09 03:37:25;;;;;;;7.05;4.65;;;;;;;17.32;100.00;102713.59;5111132;27;21168;-60
2022/08/09 03:40:12;;;;;;;9.25;4.60;;;;;;;17.33;100.00;102715.28;5098379;27;20047;-58
2022/08/09 03:42:43;;;;;;;11.80;4.93;;;;;;;17.29;100.00;102715.69;5097122;27;20084;-60
2022/08/09 03:45:10;;;;;;;9.85;4.85;;;;;;;17.23;100.00;102713.63;5093989;27;20043;-59
2022/08/09 03:47:37;;;;;;;5.95;4.38;;;;;;;17.25;100.00;102715.19;5107153;27;20055;-60
2022/08/09 03:50:13;;;;;;;7.97;4.90;;;;;;;17.26;100.00;102713.34;5104172;27;20051;-59
2022/08/09 03:53:00;;;;;;;11.68;5.05;;;;;;;17.25;100.00;102712.53;5105420;27;20590;-59
2022/08/09 03:55:28;;;;;;;10.90;5.43;;;;;;;17.21;100.00;102719.09;5121567;27;20045;-59
2022/08/09 03:58:02;;;;;;;7.90;5.47;;;;;;;17.19;100.00;102721.06;5109001;27;20060;-60
2022/08/09 04:00:41;;;;;;;8.77;5.05;;;;;;;17.18;100.00;102724.69;5119466;27;20051;-60
2022/08/09 04:03:08;;;;;;;9.35;5.30;;;;;;;17.18;100.00;102719.38;5096175;27;20055;-60
2022/08/09 04:05:45;;;;;;;9.52;5.60;;;;;;;17.15;100.00;102715.19;5115811;27;20516;-59
2022/08/09 04:08:11;;;;;;;9.10;5.10;;;;;;;17.12;100.00;102720.78;5102331;27;20044;-60
2022/08/09 04:10:38;;;;;;;8.52;5.20;;;;;;;17.12;100.00;102719.94;5106628;27;20051;-59
2022/08/09 04:13:08;;;;;;;9.65;5.07;;;;;;;17.10;100.00;102712.13;5102151;28;20224;-59
2022/08/09 04:15:37;;;;;;;7.18;5.20;;;;;;;17.09;100.00;102713.13;5095339;27;20723;-60
2022/08/09 04:18:24;;;;;;;8.73;4.95;;;;;;;17.10;100.00;102717.44;5093808;27;20074;-59
2022/08/09 04:20:50;;;;;;;8.88;5.70;;;;;;;17.07;100.00;102722.19;5107350;27;20051;-60
2022/08/09 04:23:17;;;;;;;9.38;5.97;;;;;;;17.06;100.00;102717.88;5110970;27;20047;-62
2022/08/09 04:25:51;;;;;;;8.48;5.72;;;;;;;17.03;100.00;102718.97;5100312;27;20197;-61
2022/08/09 04:28:23;;;;;;;10.93;5.00;;;;;;;17.03;100.00;102723.44;5110339;27;20616;-59
2022/08/09 04:31:00;;;;;;;11.30;5.55;;;;;;;17.00;100.00;102725.41;5102021;27;20784;-59
2022/08/09 04:33:33;;;;;;;8.38;4.82;;;;;;;17.01;100.00;102726.25;5099239;27;20147;-60
2022/08/09 04:36:26;;;;;;;9.63;5.38;;;;;;;17.04;100.00;102728.63;5110558;27;20391;-60
2022/08/09 04:38:54;;;;;;;12.00;5.50;;;;;;;17.02;100.00;102735.06;5109742;27;20047;-59
2022/08/09 04:41:21;;;;;;;11.15;5.50;;;;;;;17.04;100.00;102731.28;5104267;27;20058;-59
2022/08/09 04:43:50;;;;;;;7.55;5.43;;;;;;;17.04;100.00;102736.56;5102762;27;20310;-58
2022/08/09 04:46:33;;;;;;;11.85;6.13;;;;;;;17.04;100.00;102741.03;5095765;28;20047;-60
2022/08/09 04:49:19;;;;;;;11.30;6.30;;;;;;;17.03;100.00;102744.66;5107356;27;20043;-60
2022/08/09 04:52:06;;;;;;;8.90;6.07;;;;;;;17.01;100.00;102744.78;5104580;27;20047;-60
2022/08/09 04:54:32;;;;;;;7.45;4.60;;;;;;;17.01;100.00;102742.16;5102317;27;20446;-60
2022/08/09 04:56:59;;;;;;;10.55;5.22;;;;;;;17.02;100.00;102748.31;5101451;27;20047;-60
2022/08/09 04:59:29;;;;;;;8.52;5.25;;;;;;;17.05;100.00;102745.34;5112459;27;20584;-60
2022/08/09 05:01:55;;;;;;;11.02;5.38;;;;;;;17.06;100.00;102755.00;5099576;27;20052;-60
2022/08/09 05:04:22;;;;;;;9.52;5.80;;;;;;;16.99;100.00;102747.63;5109264;27;20043;-60
2022/08/09 05:06:56;;;;;;;7.15;5.32;;;;;;;17.05;100.00;102753.31;5107178;27;20085;-60
2022/08/09 05:09:23;;;;;;;7.95;5.15;;;;;;;17.08;100.00;102756.50;5100617;27;20134;-60
2022/08/09 05:11:50;;;;;;;10.65;5.18;;;;;;;17.07;100.00;102760.16;5110435;27;20047;-60
2022/08/09 05:14:17;;;;;;;9.05;5.03;;;;;;;17.11;100.00;102760.69;5096826;27;20047;-60
2022/08/09 05:16:44;;;;;;;8.55;5.70;;;;;;;17.09;100.00;102765.28;5109129;27;20084;-60
2022/08/09 05:19:26;;;;;;;10.82;5.55;;;;;;;17.14;100.00;102763.06;5100060;27;20516;-60
2022/08/09 05:22:12;;;;;;;10.82;5.45;;;;;;;17.14;100.00;102766.56;5101893;27;20051;-60
2022/08/09 05:24:59;;;;;;;8.30;5.35;;;;;;;17.19;100.00;102759.00;5100166;27;20058;-59
2022/08/09 05:27:28;;;;;;;11.35;4.40;;;;;;;17.24;100.00;102757.75;5105729;27;20051;-60
2022/08/09 05:29:56;;;;;;;9.30;4.60;;;;;;;17.25;100.00;102764.72;5091587;28;20066;-60
2022/08/09 05:32:24;;;;;;;11.32;5.32;;;;;;;17.26;100.00;102774.34;5099609;28;20062;-60
2022/08/09 05:34:50;;;;;;;9.85;5.05;;;;;;;17.27;100.00;102778.66;5101076;27;20043;-60
2022/08/09 05:37:17;;;;;;;10.63;5.40;;;;;;;17.30;100.00;102778.38;5095036;27;20050;-60
2022/08/09 05:39:43;;;;;;;10.27;5.82;;;;;;;17.29;100.00;102779.34;5098760;27;20048;-60
2022/08/09 05:42:12;;;;;;;8.88;5.20;;;;;;;17.31;100.00;102782.72;5098621;27;20479;-60
2022/08/09 05:44:59;;;;;;;10.15;5.07;;;;;;;17.29;100.00;102785.50;5113840;27;20055;-59
2022/08/09 05:47:26;;;;;;;8.50;4.80;;;;;;;17.33;100.00;102788.72;5094460;27;20059;-59
2022/08/09 05:49:58;;;;;;;10.32;4.65;;;;;;;17.36;100.00;102783.13;5109908;27;20638;-59
2022/08/09 05:52:44;;;;;;;10.73;5.80;;;;;;;17.42;100.00;102781.72;5096722;27;20066;-61
2022/08/09 05:55:20;;;;;;;10.57;5.07;;;;;;;17.48;100.00;102779.31;5102235;27;20130;-60
2022/08/09 05:57:49;;;;;;;12.35;5.57;;;;;;;17.51;100.00;102781.69;5102869;27;20506;-60
2022/08/09 06:00:28;;;;;;;8.13;4.95;;;;;;;17.55;100.00;102783.06;5093976;27;20043;-60
2022/08/09 06:03:00;;;;;;;9.27;4.90;;;;;;;17.55;100.00;102784.88;5111337;27;20059;-60
2022/08/09 06:05:29;;;;;;;9.18;5.38;;;;;;;17.56;100.00;102789.19;5099541;27;20644;-60
2022/08/09 06:08:16;;;;;;;9.65;4.45;;;;;;;17.57;100.00;102785.56;5110020;27;20808;-60
2022/08/09 06:10:49;;;;;;;9.13;4.55;;;;;;;17.64;100.00;102791.97;5107652;27;20553;-60
2022/08/09 06:13:17;;;;;;;11.13;4.80;;;;;;;17.68;100.00;102789.84;5109479;27;20050;-60
2022/08/09 06:15:48;;;;;;;7.95;4.03;;;;;;;17.68;100.00;102793.38;5113790;27;20769;-60
2022/08/09 06:18:18;;;;;;;8.57;4.78;;;;;;;17.73;100.00;102779.66;5094908;27;20055;-60
2022/08/09 06:20:50;;;;;;;11.88;4.85;;;;;;;17.71;100.00;102789.56;5111428;27;20108;-60
2022/08/09 06:23:25;;;;;;;13.00;5.05;;;;;;;17.76;100.00;102792.63;5096552;27;20047;-60
2022/08/09 06:26:13;;;;;;;6.78;4.50;;;;;;;17.77;100.00;102795.13;5098187;28;20051;-60
2022/08/09 06:28:39;;;;;;;7.50;4.20;;;;;;;17.81;100.00;102800.16;5084171;28;20504;-60
2022/08/09 06:31:09;;;;;;;12.98;4.03;;;;;;;17.87;100.00;102804.91;5103531;27;20559;-60
2022/08/09 06:33:35;;;;;;;8.32;4.32;;;;;;;17.90;100.00;102801.97;5099309;28;20074;-60
2022/08/09 06:36:07;;;;;;;10.60;5.57;;;;;;;17.92;100.00;102802.66;5098449;28;20058;-60
2022/08/09 06:38:34;;;;;;;7.20;4.38;;;;;;;17.96;100.00;102804.03;5110458;27;20453;-60
2022/08/09 06:41:03;;;;;;;7.22;3.50;;;;;;;18.00;100.00;102809.88;5107355;27;20051;-58
2022/08/09 06:43:45;;;;;;;5.10;3.00;;;;;;;18.01;100.00;102809.72;5108901;27;20224;-60
2022/08/09 06:46:13;;;;;;;7.53;3.53;;;;;;;18.06;100.00;102809.31;5101076;27;20043;-61
2022/08/09 06:49:00;;;;;;;3.92;2.58;;;;;;;18.12;100.00;102798.91;5116691;27;20051;-59
2022/08/09 06:51:26;;;;;;;6.40;3.47;;;;;;;18.15;100.00;102803.94;5103801;27;20485;-61
2022/08/09 06:53:53;;;;;;;7.00;3.40;;;;;;;18.20;100.00;102802.66;5118977;27;20377;-60
2022/08/09 06:56:20;;;;;;;5.82;3.60;;;;;;;18.26;100.00;102808.19;5104750;27;20533;-60
2022/08/09 06:58:56;;;;;;;5.53;3.30;;;;;;;18.30;100.00;102803.44;5101414;27;20051;-61
2022/08/09 07:01:42;;;;;;;6.63;2.70;;;;;;;18.36;100.00;102813.44;5107031;27;20062;-59
2022/08/09 07:04:23;;;;;;;6.38;3.13;;;;;;;18.41;100.00;102815.69;5106161;27;20973;-59
2022/08/09 07:06:52;;;;;;;9.25;3.22;;;;;;;18.46;100.00;102814.22;5110678;27;20445;-61
2022/08/09 07:09:27;;;;;;;5.35;3.00;;;;;;;18.53;100.00;102812.63;5104962;27;20054;-59
2022/08/09 07:12:14;;;;;;;5.63;2.83;;;;;;;18.54;100.00;102806.34;5105687;27;20055;-60
2022/08/09 07:14:44;;;;;;;5.10;2.60;;;;;;;18.60;100.00;102812.03;5106061;27;20083;-62
2022/08/09 07:17:18;;;;;;;4.68;2.50;;;;;;;18.69;100.00;102813.78;5107910;27;20046;-60
2022/08/09 07:19:44;;;;;;;6.63;2.50;;;;;;;18.72;100.00;102821.47;5107237;27;20051;-59
2022/08/09 07:22:17;;;;;;;6.88;2.60;;;;;;;18.79;100.00;102819.88;5106674;27;20056;-59
2022/08/09 07:24:53;;;;;;;6.50;2.63;;;;;;;18.82;100.00;102821.41;5107684;27;20054;-59
2022/08/09 07:27:19;;;;;;;4.47;2.70;;;;;;;18.83;100.00;102823.91;5100407;27;20052;-58
2022/08/09 07:30:01;;;;;;;8.18;3.40;;;;;;;18.87;100.00;102822.63;5111149;27;20506;-59
2022/08/09 07:32:28;;;;;;;5.63;2.22;;;;;;;18.95;100.00;102820.06;5106058;27;20047;-59
2022/08/09 07:35:01;;;;;;;4.40;1.83;;;;;;;19.02;100.00;102814.94;5112456;27;20526;-60
2022/08/09 07:37:28;;;;;;;3.72;2.30;;;;;;;19.05;100.00;102817.31;5109214;27;20051;-56
2022/08/09 07:39:54;;;;;;;12.40;2.15;;;;;;;19.09;100.00;102818.66;5113453;27;20350;-59
2022/08/09 07:42:22;;;;;;;8.40;2.53;;;;;;;19.14;100.00;102823.53;5118292;27;20444;-59
2022/08/09 07:44:58;;;;;;;7.53;2.00;;;;;;;19.26;100.00;102829.44;5090805;27;20343;-59
2022/08/09 07:47:31;;;;;;;4.00;1.60;;;;;;;19.31;100.00;102827.16;5115223;27;20179;-60
2022/08/09 07:50:19;;;;;;;3.13;1.65;;;;;;;19.43;100.00;102825.06;5093611;27;20058;-62
2022/08/09 07:53:00;;;;;;;5.50;1.63;;;;;;;19.51;100.00;102825.09;5102985;27;20044;-59
2022/08/09 07:55:29;;;;;;;3.85;1.60;;;;;;;19.57;100.00;102819.16;5109815;27;20100;-59
2022/08/09 07:58:16;;;;;;;3.92;1.88;;;;;;;19.61;100.00;102817.84;5109009;27;20495;-61
2022/08/09 08:00:43;;;;;;;3.80;1.90;;;;;;;19.66;100.00;102820.03;5111028;27;20055;-61
2022/08/09 08:03:29;;;;;;;3.45;1.50;;;;;;;19.73;100.00;102815.78;5101876;27;20066;-61
2022/08/09 08:05:56;;;;;;;3.83;1.58;;;;;;;19.78;100.00;102821.47;5104064;27;20059;-61
2022/08/09 08:08:24;;;;;;;2.57;1.60;;;;;;;19.79;100.00;102819.63;5097853;27;20088;-60
2022/08/09 08:11:11;;;;;;;3.08;1.60;;;;;;;19.92;100.00;102815.53;5109863;27;20268;-60
2022/08/09 08:13:57;;;;;;;21.88;2.38;;;;;;;19.99;100.00;102817.56;5101013;27;20051;-61
2022/08/09 08:16:24;;;;;;;3.15;1.50;;;;;;;20.14;100.00;102823.94;5104501;27;20540;-60
2022/08/09 08:18:57;;;;;;;2.03;1.00;;;;;;;20.21;100.00;102826.78;5091035;27;20307;-60
2022/08/09 08:21:23;;;;;;;3.25;1.30;;;;;;;20.31;100.00;102816.84;5105050;27;20132;-61
2022/08/09 08:23:52;;;;;;;2.88;1.02;;;;;;;20.54;100.00;102819.69;5096631;27;20051;-60
2022/08/09 08:26:21;;;;;;;2.10;0.93;;;;;;;20.87;94.91;102825.13;5094223;27;20051;-59
2022/08/09 08:29:08;;;;;;;1.83;0.70;;;;;;;21.25;94.81;102820.13;5104820;27;20070;-59
2022/08/09 08:31:34;;;;;;;1.17;0.95;;;;;;;21.62;89.94;102816.91;5098997;27;20063;-59
2022/08/09 08:34:27;;;;;;;3.00;1.05;;;;;;;22.07;89.75;102819.88;5096995;27;20047;-59
2022/08/09 08:36:53;;;;;;;4.28;1.42;;;;;;;22.47;88.17;102821.53;5095083;27;20055;-60
2022/08/09 08:39:20;;;;;;;1.33;0.98;;;;;;;22.85;85.00;102813.53;5106897;27;20162;-58
2022/08/09 08:41:49;;;;;;;3.88;1.10;;;;;;;23.18;81.39;102823.19;5101892;27;20140;-60
2022/08/09 08:44:20;;;;;;;2.80;1.20;;;;;;;23.52;80.91;102819.97;5103063;27;20059;-60
2022/08/09 08:46:54;;;;;;;2.53;1.20;;;;;;;23.77;79.69;102817.84;5109918;27;20058;-59
2022/08/09 08:49:37;;;;;;;3.92;1.20;;;;;;;24.04;75.11;102827.09;5110688;27;20048;-60
2022/08/09 08:52:16;;;;;;;1.95;1.20;;;;;;;24.30;74.87;102827.59;5101108;27;20055;-60
2022/08/09 08:55:02;;;;;;;3.72;2.35;;;;;;;24.53;73.71;102836.31;5105676;27;20507;-59
2022/08/09 08:57:31;;;;;;;4.15;2.28;;;;;;;24.80;72.33;102832.03;5101255;28;20053;-59
2022/08/09 09:00:01;;;;;;;3.72;2.40;;;;;;;25.01;70.85;102835.72;5088119;28;20093;-58
2022/08/09 09:02:33;;;;;;;2.78;1.50;;;;;;;25.19;68.05;102835.25;5108956;27;20043;-59
2022/08/09 09:05:00;;;;;;;1.95;1.05;;;;;;;25.38;68.03;102837.25;5095996;27;20829;-60
2022/08/09 09:07:32;;;;;;;3.15;1.00;;;;;;;25.48;64.85;102828.84;5103694;27;20511;-60
2022/08/09 09:10:07;;;;;;;2.67;0.95;;;;;;;25.69;65.00;102824.44;5099791;27;20051;-60
2022/08/09 09:12:35;;;;;;;4.78;0.93;;;;;;;25.87;64.94;102834.63;5112279;27;20448;-59
2022/08/09 09:15:04;;;;;;;3.22;0.80;;;;;;;26.09;64.27;102828.16;5102322;27;20050;-60
2022/08/09 09:17:34;;;;;;;2.17;0.90;;;;;;;26.28;63.66;102825.72;5099177;27;20046;-60
2022/08/09 09:20:18;;;;;;;2.95;0.82;;;;;;;26.49;63.58;102830.13;5103934;27;20044;-62
2022/08/09 09:22:55;;;;;;;3.45;0.80;;;;;;;26.58;62.66;102827.06;5092117;28;20066;-60
2022/08/09 09:25:40;;;;;;;3.50;1.30;;;;;;;26.75;61.79;102832.84;5104877;27;20055;-61
2022/08/09 09:28:31;;;;;;;2.45;0.90;;;;;;;26.91;59.71;102823.53;5102623;27;20058;-60
2022/08/09 09:31:18;;;;;;;5.95;1.17;;;;;;;26.96;58.96;102820.22;5107969;27;20338;-61
2022/08/09 09:34:13;;;;;;;2.03;0.93;;;;;;;27.10;59.70;102819.19;5102583;27;20803;-60
2022/08/09 09:36:44;;;;;;;3.53;0.95;;;;;;;27.21;58.89;102823.13;5092532;28;20624;-58
2022/08/09 09:39:21;;;;;;;1.77;0.88;;;;;;;27.33;58.60;102820.63;5106877;27;20051;-61
2022/08/09 09:41:49;;;;;;;1.50;0.70;;;;;;;27.51;57.38;102825.34;5094749;27;20173;-60
2022/08/09 09:44:31;;;;;;;2.22;0.90;;;;;;;27.57;56.94;102827.19;5090876;28;20047;-61
2022/08/09 09:47:12;;;;;;;2.97;1.00;;;;;;;27.71;56.69;102822.59;5108901;27;20051;-61
2022/08/09 09:49:42;;;;;;;2.53;0.80;;;;;;;27.83;56.56;102830.84;5106590;27;20046;-61
2022/08/09 09:52:28;;;;;;;4.43;0.90;;;;;;;27.92;56.38;102824.19;5102355;27;20039;-61
2022/08/09 09:55:05;;;;;;;3.22;0.80;;;;;;;28.06;56.33;102825.78;5111528;27;20054;-61
2022/08/09 09:57:57;;;;;;;4.80;0.93;;;;;;;28.20;55.35;102832.75;5098317;27;20051;-59
2022/08/09 10:00:30;;;;;;;1.30;0.75;;;;;;;28.29;55.13;102827.13;5107307;27;20044;-59
2022/08/09 10:02:58;;;;;;;3.38;0.95;;;;;;;28.42;55.71;102828.91;5104847;27;20463;-61
2022/08/09 10:05:25;;;;;;;2.47;1.00;;;;;;;28.53;56.23;102831.75;5105599;27;20054;-61
2022/08/09 10:08:11;;;;;;;1.80;0.80;;;;;;;28.59;54.16;102830.06;5102045;27;20054;-60
2022/08/09 10:10:53;;;;;;;3.60;0.70;;;;;;;28.65;55.15;102825.66;5097853;27;20434;-61
2022/08/09 10:13:21;;;;;;;2.80;0.70;;;;;;;28.75;54.83;102829.50;5097046;27;20051;-59
2022/08/09 10:16:07;;;;;;;4.27;0.80;;;;;;;28.82;53.69;102837.56;5103339;27;20788;-60
2022/08/09 10:18:55;;;;;;;1.97;0.80;;;;;;;28.94;52.99;102833.09;5101002;27;20301;-63
2022/08/09 10:21:26;;;;;;;2.92;0.88;;;;;;;29.08;53.21;102830.28;5106722;27;20091;-61
2022/08/09 10:23:55;;;;;;;1.95;0.80;;;;;;;29.17;52.40;102824.41;5098509;27;20500;-60
2022/08/09 10:26:22;;;;;;;2.83;0.90;;;;;;;29.13;51.65;102822.38;5090503;27;20153;-61
2022/08/09 10:28:50;;;;;;;3.83;0.90;;;;;;;29.14;53.08;102813.19;5098773;28;20051;-61
2022/08/09 10:31:38;;;;;;;1.90;0.90;;;;;;;29.37;53.27;102807.16;5092956;28;20055;-61
2022/08/09 10:34:24;;;;;;;3.25;1.58;;;;;;;29.36;52.96;102808.19;5108698;28;20061;-59
2022/08/09 10:37:01;;;;;;;1.77;1.10;;;;;;;29.53;53.61;102808.41;5093891;28;20128;-61
2022/08/09 10:39:39;;;;;;;2.45;1.20;;;;;;;29.69;53.46;102807.78;5094679;28;20667;-61
2022/08/09 10:42:15;;;;;;;1.73;0.98;;;;;;;29.72;52.60;102810.09;5102129;28;20044;-61
2022/08/09 10:44:58;;;;;;;0.77;0.77;;;;;;;29.94;52.11;102804.19;5098888;28;20632;-60
2022/08/09 10:47:56;;;;;;;2.50;0.80;;;;;;;30.06;52.66;102799.63;5102044;28;20047;-61
2022/08/09 10:51:08;;;;;;;1.10;0.88;;;;;;;30.07;51.09;102805.88;5102903;28;20039;-61
2022/08/09 10:53:40;;;;;;;3.38;0.80;;;;;;;30.23;50.55;102807.94;5098667;28;20059;-60
2022/08/09 10:56:28;;;;;;;3.13;1.00;;;;;;;30.19;49.33;102801.34;5104762;28;20411;-59
2022/08/09 10:58:57;;;;;;;1.65;0.85;;;;;;;30.39;50.25;102800.25;5108519;27;20050;-61
2022/08/09 11:01:30;;;;;;;2.25;0.70;;;;;;;30.37;49.30;102797.75;5102189;27;20051;-62
2022/08/09 11:04:22;;;;;;;1.38;0.77;;;;;;;30.53;50.04;102793.53;5107825;28;20606;-60
2022/08/09 11:06:57;;;;;;;1.60;0.77;;;;;;;30.58;49.08;102787.41;5094924;28;20058;-60
2022/08/09 11:09:52;;;;;;;2.28;0.80;;;;;;;30.60;49.67;102793.44;5100501;28;20054;-60
2022/08/09 11:12:27;;;;;;;1.33;0.65;;;;;;;30.67;48.74;102783.31;5099555;27;20539;-58
2022/08/09 11:15:18;;;;;;;1.98;0.73;;;;;;;30.76;47.96;102790.03;5105035;27;20060;-60
2022/08/09 11:17:55;;;;;;;2.05;0.70;;;;;;;30.85;49.72;102782.38;5091177;28;20047;-59
2022/08/09 11:20:46;;;;;;;2.75;0.90;;;;;;;30.93;48.67;102782.03;5094050;28;20051;-60
2022/08/09 11:23:15;;;;;;;3.25;1.05;;;;;;;30.94;48.10;102773.69;5106766;27;20051;-60
2022/08/09 11:25:49;;;;;;;2.78;0.90;;;;;;;30.99;47.96;102782.97;5109707;27;20068;-61
2022/08/09 11:28:33;;;;;;;1.65;0.80;;;;;;;31.04;49.41;102778.50;5100058;27;20454;-60
2022/08/09 11:31:48;;;;;;;1.65;0.70;;;;;;;31.16;50.00;102783.91;5110984;27;20062;-61
2022/08/09 11:34:42;;;;;;;2.67;0.80;;;;;;;31.27;48.84;102772.22;5095664;27;20091;-59
2022/08/09 11:37:10;;;;;;;1.15;0.70;;;;;;;31.43;49.57;102765.22;5108926;27;20062;-61
2022/08/09 11:40:01;;;;;;;2.28;0.70;;;;;;;31.47;48.05;102763.72;5110565;27;20064;-61
2022/08/09 11:42:45;;;;;;;1.40;0.90;;;;;;;31.67;48.05;102762.47;5098416;27;20357;-60
2022/08/09 11:45:41;;;;;;;2.40;0.70;;;;;;;31.61;46.77;102753.41;5106046;27;20124;-60
2022/08/09 11:48:11;;;;;;;2.80;0.73;;;;;;;31.62;44.67;102754.22;5094521;27;20176;-60
2022/08/09 11:51:02;;;;;;;1.48;0.73;;;;;;;31.81;46.06;102758.38;5117397;27;20051;-60
2022/08/09 11:54:26;;;;;;;2.10;0.80;;;;;;;31.94;47.91;102751.84;5096411;27;20059;-60
2022/08/09 11:57:38;;;;;;;2.33;0.90;;;;;;;32.04;46.30;102754.75;5107793;27;20047;-59
2022/08/09 12:00:26;;;;;;;4.35;0.95;;;;;;;32.23;47.14;102749.13;5104854;27;20105;-61
2022/08/09 12:02:55;;;;;;;0.90;0.68;;;;;;;32.15;44.98;102754.94;5096546;28;20105;-60